.
WxDataArchive / Data Records for 2007-10-30
2007-10-29 October 2007 2007-10-31

Data Records for Tuesday, 30 October 2007

Time	Temp	Chill	HIndex	Humid	Dewpt	 Wind 	HiWind	WindDir	Rain 	Barom 
-----	----	-----	------	-----	-----	------	------	-------	-----	----- 
00:00	38.6	38.6	38.6	84	34.2	0	0	---	0.00	30.333 
00:05	38.6	38.6	38.6	84	34.2	0	0	---	0.00	30.332 
00:10	38.6	38.6	38.6	84	34.2	0	0	---	0.00	30.332 
00:15	38.8	38.8	38.8	84	34.4	0	0	---	0.00	30.331 
00:20	38.6	38.6	38.6	83	33.9	0	0	---	0.00	30.331 
00:25	38.5	38.5	38.5	83	33.8	0	0	---	0.00	30.330 
00:30	38.2	38.2	38.2	83	33.5	0	0	---	0.00	30.329 
00:35	38.0	38.0	38.0	84	33.6	0	0	---	0.00	30.330 
00:40	37.9	37.9	37.9	84	33.5	0	0	---	0.00	30.331 
00:45	37.6	37.6	37.6	84	33.2	0	0	---	0.00	30.331 
00:50	37.5	37.5	37.5	85	33.4	0	0	---	0.00	30.331 
00:55	37.3	37.3	37.3	85	33.2	0	0	---	0.00	30.333 
01:00	37.2	37.2	37.2	86	33.4	0	0	---	0.00	30.333 
01:05	37.0	37.0	37.0	86	33.2	0	0	---	0.00	30.329 
01:10	36.9	36.9	36.9	86	33.1	0	0	---	0.00	30.327 
01:15	36.8	36.8	36.8	86	33.0	0	0	---	0.00	30.326 
01:20	36.5	36.5	36.5	87	33.0	0	0	---	0.00	30.325 
01:25	36.5	36.5	36.5	87	33.0	0	0	---	0.00	30.328 
01:30	36.3	36.3	36.3	88	33.1	0	0	---	0.00	30.329 
01:35	36.2	36.2	36.2	88	33.0	0	0	---	0.00	30.327 
01:40	36.2	36.2	36.2	88	33.0	0	0	---	0.00	30.329 
01:45	36.0	36.0	36.0	88	32.8	0	0	---	0.00	30.330 
01:50	35.9	35.9	35.9	88	32.7	0	0	---	0.00	30.330 
01:55	35.8	35.8	35.8	88	32.6	0	0	---	0.00	30.327 
02:00	35.6	35.6	35.6	89	32.7	0	0	---	0.00	30.328 
02:05	35.5	35.5	35.5	89	32.6	0	0	---	0.00	30.326 
02:10	35.3	35.3	35.3	89	32.4	0	0	---	0.00	30.327 
02:15	35.3	35.3	35.3	90	32.7	0	0	---	0.00	30.332 
02:20	35.5	35.5	35.5	90	32.9	0	0	---	0.00	30.332 
02:25	35.5	35.5	35.5	90	32.9	0	0	---	0.00	30.330 
02:30	35.3	35.3	35.3	91	32.9	0	0	---	0.00	30.329 
02:35	35.2	35.2	35.2	91	32.8	0	0	---	0.00	30.330 
02:40	35.0	35.0	35.0	91	32.6	0	0	---	0.00	30.331 
02:45	34.9	34.9	34.9	91	32.5	0	0	---	0.00	30.329 
02:50	34.9	34.9	34.9	91	32.5	0	0	---	0.00	30.327 
02:55	34.7	34.7	34.7	91	32.3	0	0	---	0.00	30.329 
03:00	34.7	34.7	34.7	91	32.3	0	0	---	0.00	30.330 
03:05	34.7	34.7	34.7	92	32.6	0	0	---	0.00	30.329 
03:10	34.6	34.6	34.6	92	32.5	0	0	---	0.00	30.327 
03:15	34.4	34.4	34.4	92	32.3	0	0	---	0.00	30.328 
03:20	34.4	34.4	34.4	92	32.3	0	0	---	0.00	30.326 
03:25	34.4	34.4	34.4	92	32.3	0	0	---	0.00	30.323 
03:30	34.3	34.3	34.3	92	32.2	0	0	---	0.00	30.321 
03:35	34.3	34.3	34.3	92	32.2	0	0	---	0.00	30.323 
03:40	34.3	34.3	34.3	92	32.2	0	0	---	0.00	30.323 
03:45	34.3	34.3	34.3	92	32.2	0	0	---	0.00	30.323 
03:50	34.1	34.1	34.1	92	32.0	0	0	---	0.00	30.322 
03:55	34.0	34.0	34.0	92	31.9	0	0	---	0.00	30.322 
04:00	34.0	34.0	34.0	92	31.9	0	0	---	0.00	30.324 
04:05	34.0	34.0	34.0	93	32.2	0	0	---	0.00	30.323 
04:10	33.8	33.8	33.8	93	32.0	0	0	---	0.00	30.325 
04:15	33.8	33.8	33.8	93	32.0	0	0	---	0.00	30.324 
04:20	33.7	33.7	33.7	93	31.9	0	0	---	0.00	30.322 
04:25	33.5	33.5	33.5	93	31.7	0	0	---	0.00	30.323 
04:30	33.4	33.4	33.4	93	31.6	0	0	---	0.00	30.323 
04:35	33.4	33.4	33.4	93	31.6	0	0	---	0.00	30.326 
04:40	33.4	33.4	33.4	93	31.6	0	0	---	0.00	30.326 
04:45	33.2	33.2	33.2	93	31.4	0	0	---	0.00	30.326 
04:50	33.2	33.2	33.2	93	31.4	0	0	---	0.00	30.327 
04:55	33.1	33.1	33.1	93	31.3	0	0	---	0.00	30.327 
05:00	32.9	32.9	32.9	93	31.1	0	0	---	0.00	30.326 
05:05	32.9	32.9	32.9	93	31.1	0	0	---	0.00	30.329 
05:10	32.9	32.9	32.9	93	31.1	0	0	---	0.00	30.333 
05:15	32.8	32.8	32.8	93	31.0	0	0	---	0.00	30.337 
05:20	32.8	32.8	32.8	93	31.0	0	0	---	0.00	30.336 
05:25	32.7	32.7	32.7	93	30.9	0	0	---	0.00	30.336 
05:30	32.7	32.7	32.7	93	30.9	0	0	---	0.00	30.334 
05:35	32.5	32.5	32.5	93	30.7	0	0	---	0.00	30.332 
05:40	32.4	32.4	32.4	93	30.6	0	0	---	0.00	30.336 
05:45	32.4	32.4	32.4	93	30.6	0	0	---	0.00	30.337 
05:50	32.2	32.2	32.2	93	30.4	0	0	---	0.00	30.337 
05:55	32.2	32.2	32.2	94	30.7	0	0	---	0.00	30.338 
06:00	32.1	32.1	32.1	94	30.6	0	0	---	0.00	30.337 
06:05	32.2	32.2	32.2	94	30.7	0	0	---	0.00	30.344 
06:10	32.2	32.2	32.2	94	30.7	0	0	---	0.00	30.346 
06:15	32.2	32.2	32.2	94	30.7	0	0	---	0.00	30.346 
06:20	32.2	32.2	32.2	94	30.7	0	0	---	0.00	30.347 
06:25	32.1	32.1	32.1	94	30.6	0	0	---	0.00	30.346 
06:30	31.9	31.9	31.9	94	30.4	0	0	---	0.00	30.346 
06:35	31.9	31.9	31.9	94	30.4	0	0	---	0.00	30.346 
06:40	31.8	31.8	31.8	94	30.3	0	0	---	0.00	30.346 
06:45	31.8	31.8	31.8	94	30.3	0	0	---	0.00	30.346 
06:50	31.9	31.9	31.9	94	30.4	0	0	---	0.00	30.347 
06:55	31.9	31.9	31.9	94	30.4	0	0	---	0.00	30.347 
07:00	31.9	31.9	31.9	94	30.4	0	0	---	0.00	30.347 
07:05	31.9	31.9	31.9	94	30.4	0	0	---	0.00	30.349 
07:10	31.9	31.9	31.9	94	30.4	0	0	---	0.00	30.350 
07:15	31.8	31.8	31.8	94	30.3	0	0	---	0.00	30.349 
07:20	31.8	31.8	31.8	94	30.3	0	0	---	0.00	30.349 
07:25	31.9	31.9	31.9	94	30.4	0	0	---	0.00	30.349 
07:30	32.1	32.1	32.1	95	30.8	0	0	---	0.00	30.351 
07:35	32.1	32.1	32.1	95	30.8	0	0	---	0.00	30.352 
07:40	32.1	32.1	32.1	95	30.8	0	0	---	0.00	30.356 
07:45	32.2	32.2	32.2	95	30.9	0	0	---	0.00	30.359 
07:50	32.5	32.5	32.5	95	31.2	0	0	---	0.00	30.363 
07:55	32.7	32.7	32.7	95	31.4	0	0	---	0.00	30.363 
08:00	33.1	33.1	33.1	95	31.8	0	0	---	0.00	30.364 
08:05	33.7	33.7	33.7	95	32.4	0	0	---	0.00	30.365 
08:10	34.3	34.3	34.3	96	33.3	0	0	---	0.00	30.365 
08:15	35.3	35.3	35.3	96	34.3	0	0	---	0.00	30.365 
08:20	36.0	36.0	36.0	96	35.0	0	0	---	0.00	30.364 
08:25	36.8	36.8	36.8	96	35.8	0	0	---	0.00	30.365 
08:30	37.6	37.6	37.6	96	36.6	0	1	248	0.00	30.363 
08:35	38.5	38.5	38.5	96	37.5	0	1	248	0.00	30.361 
08:40	39.6	39.6	39.6	96	38.6	0	1	248	0.00	30.360 
08:45	40.9	40.9	40.9	92	38.8	0	1	248	0.00	30.358 
08:50	42.2	42.2	42.2	84	37.7	0	1	248	0.00	30.354 
08:55	43.8	43.8	43.8	78	37.4	0	1	248	0.00	30.350 
09:00	45.2	45.2	45.2	70	36.0	0	2	248	0.00	30.345 
09:05	46.2	46.2	46.2	69	36.6	0	3	248	0.00	30.345 
09:10	46.5	46.5	46.5	67	36.1	1	2	248	0.00	30.346 
09:15	46.8	46.8	46.8	65	35.7	1	3	248	0.00	30.346 
09:20	47.3	47.3	47.3	64	35.7	1	3	248	0.00	30.342 
09:25	48.0	48.0	48.0	62	35.6	0	2	248	0.00	30.341 
09:30	48.5	48.5	48.5	62	36.1	0	2	248	0.00	30.340 
09:35	48.9	48.9	48.9	61	36.0	1	2	248	0.00	30.340 
09:40	49.5	49.5	49.5	59	35.8	1	4	248	0.00	30.339 
09:45	49.9	49.9	49.9	59	36.1	1	3	248	0.00	30.337 
09:50	50.5	50.5	50.5	59	36.7	0	2	248	0.00	30.336 
09:55	50.8	50.8	50.8	56	35.7	1	4	248	0.00	30.336 
10:00	51.1	51.1	51.1	56	36.0	1	3	248	0.00	30.336 
10:05	51.4	51.4	51.4	56	36.2	1	4	248	0.00	30.337 
10:10	52.0	52.0	52.0	56	36.8	1	3	248	0.00	30.332 
10:15	52.8	52.8	52.8	55	37.1	1	6	248	0.00	30.332 
10:20	53.1	53.1	53.1	52	35.9	1	5	248	0.00	30.330 
10:25	53.1	53.1	53.1	53	36.4	1	5	248	0.00	30.327 
10:30	53.5	53.5	53.5	54	37.3	1	3	248	0.00	30.324 
10:35	54.2	54.2	54.2	53	37.4	1	3	135	0.00	30.319 
10:40	54.7	54.7	54.7	50	36.4	1	5	248	0.00	30.319 
10:45	55.0	55.0	55.0	55	39.1	1	3	248	0.00	30.319 
10:50	55.6	55.6	55.6	50	37.3	1	3	112	0.00	30.318 
10:55	56.0	56.0	56.0	47	36.1	2	6	248	0.00	30.316 
11:00	56.2	56.2	56.2	46	35.7	1	5	248	0.00	30.314 
11:05	56.2	56.2	56.2	47	36.2	1	4	225	0.00	30.313 
11:10	56.3	56.3	56.3	45	35.2	2	9	248	0.00	30.313 
11:15	56.6	56.6	56.6	46	36.1	1	5	248	0.00	30.308 
11:20	56.9	56.9	56.9	45	35.8	1	6	248	0.00	30.307 
11:25	57.2	57.2	57.2	45	36.1	1	5	270	0.00	30.305 
11:30	57.2	57.2	57.2	43	34.9	2	6	248	0.00	30.303 
11:35	57.2	57.2	57.2	45	36.1	2	6	248	0.00	30.302 
11:40	57.3	57.3	57.3	46	36.7	1	6	248	0.00	30.300 
11:45	57.6	57.6	57.6	47	37.5	1	3	338	0.00	30.298 
11:50	58.0	58.0	58.0	43	35.6	1	4	68	0.00	30.296 
11:55	58.1	58.1	58.1	43	35.7	1	6	68	0.00	30.294 
12:00	58.3	58.3	58.3	43	35.9	1	5	248	0.00	30.291 
12:05	58.4	58.4	58.4	44	36.6	1	5	90	0.00	30.290 
12:10	58.6	58.6	58.6	44	36.8	2	6	225	0.00	30.288 
12:15	58.7	58.7	58.7	42	35.7	1	6	270	0.00	30.284 
12:20	58.9	58.9	58.9	41	35.2	2	6	248	0.00	30.282 
12:25	58.9	58.9	58.9	43	36.4	1	5	248	0.00	30.280 
12:30	59.2	59.2	59.2	41	35.5	2	6	248	0.00	30.278 
12:35	59.3	59.3	59.3	40	35.0	1	4	292	0.00	30.276 
12:40	59.8	59.8	59.8	40	35.4	2	7	248	0.00	30.270 
12:45	59.9	59.9	59.9	41	36.1	1	4	270	0.00	30.268 
12:50	59.9	59.9	59.9	40	35.5	1	4	90	0.00	30.267 
12:55	60.2	60.2	60.2	41	36.4	1	4	90	0.00	30.266 
13:00	60.4	60.4	60.4	39	35.3	1	6	248	0.00	30.262 
13:05	60.5	60.5	60.5	38	34.8	1	4	68	0.00	30.257 
13:10	60.7	60.7	60.7	39	35.6	1	5	248	0.00	30.254 
13:15	61.0	61.0	61.0	38	35.2	1	5	248	0.00	30.253 
13:20	60.9	60.9	60.9	38	35.1	2	7	248	0.00	30.252 
13:25	61.0	61.0	61.0	35	33.2	1	5	315	0.00	30.252 
13:30	61.2	61.2	61.2	37	34.7	2	5	270	0.00	30.252 
13:35	61.6	61.6	61.6	38	35.7	1	4	270	0.00	30.249 
13:40	62.0	62.0	62.0	36	34.7	1	5	248	0.00	30.245 
13:45	62.3	62.3	62.3	34	33.6	2	5	225	0.00	30.245 
13:50	62.1	62.1	62.1	32	31.9	2	6	248	0.00	30.244 
13:55	62.0	62.0	62.0	35	34.0	2	5	248	0.00	30.237 
14:00	62.3	62.3	62.3	35	34.3	1	5	248	0.00	30.237 
14:05	62.4	62.4	62.4	32	32.2	3	9	248	0.00	30.237 
14:10	62.4	62.4	62.4	31	31.4	3	6	248	0.00	30.237 
14:15	62.6	62.6	62.6	31	31.5	3	7	248	0.00	30.234 
14:20	62.6	62.6	62.6	34	33.8	1	5	248	0.00	30.230 
14:25	62.9	62.9	62.9	35	34.8	1	3	248	0.00	30.226 
14:30	63.1	63.1	63.1	32	32.8	2	7	248	0.00	30.227 
14:35	63.2	63.2	63.2	31	32.1	2	7	248	0.00	30.227 
14:40	63.1	63.1	63.1	31	32.0	2	7	248	0.00	30.224 
14:45	63.1	63.1	63.1	31	32.0	2	6	248	0.00	30.222 
14:50	63.2	63.2	63.2	32	32.9	2	6	248	0.00	30.221 
14:55	63.7	63.7	63.7	30	31.7	2	10	248	0.00	30.220 
15:00	63.9	63.9	63.9	28	30.2	3	8	248	0.00	30.220 
15:05	64.0	64.0	64.0	30	31.9	2	6	248	0.00	30.219 
15:10	64.0	64.0	64.0	29	31.1	3	6	248	0.00	30.218 
15:15	63.7	63.7	63.7	31	32.5	2	4	225	0.00	30.217 
15:20	63.5	63.5	63.5	31	32.3	1	3	248	0.00	30.216 
15:25	63.9	63.9	63.9	29	31.0	3	6	248	0.00	30.216 
15:30	63.9	63.9	63.9	30	31.9	2	5	225	0.00	30.213 
15:35	63.7	63.7	63.7	31	32.5	1	4	248	0.00	30.209 
15:40	63.7	63.7	63.7	35	35.5	1	5	248	0.00	30.206 
15:45	63.4	63.4	63.4	31	32.2	2	5	270	0.00	30.204 
15:50	63.2	63.2	63.2	31	32.1	1	3	248	0.00	30.205 
15:55	63.2	63.2	63.2	30	31.3	2	9	248	0.00	30.204 
16:00	63.2	63.2	63.2	32	32.9	1	4	248	0.00	30.204 
16:05	63.1	63.1	63.1	33	33.5	1	4	135	0.00	30.202 
16:10	63.1	63.1	63.1	33	33.5	2	5	248	0.00	30.200 
16:15	62.9	62.9	62.9	33	33.4	1	5	248	0.00	30.197 
16:20	62.9	62.9	62.9	32	32.6	1	5	248	0.00	30.196 
16:25	62.9	62.9	62.9	33	33.4	1	5	248	0.00	30.196 
16:30	62.7	62.7	62.7	34	33.9	0	2	248	0.00	30.196 
16:35	62.6	62.6	62.6	34	33.8	1	6	248	0.00	30.195 
16:40	62.4	62.4	62.4	35	34.4	1	4	225	0.00	30.193 
16:45	62.3	62.3	62.3	36	35.0	0	3	225	0.00	30.194 
16:50	62.1	62.1	62.1	36	34.8	1	4	248	0.00	30.193 
16:55	62.0	62.0	62.0	37	35.4	1	5	248	0.00	30.193 
17:00	61.5	61.5	61.5	38	35.7	0	2	248	0.00	30.191 
17:05	61.2	61.2	61.2	39	36.0	0	1	248	0.00	30.190 
17:10	60.5	60.5	60.5	40	36.1	0	1	248	0.00	30.189 
17:15	60.1	60.1	60.1	41	36.3	0	3	248	0.00	30.187 
17:20	59.8	59.8	59.8	42	36.7	0	1	248	0.00	30.188 
17:25	59.3	59.3	59.3	44	37.4	0	0	---	0.00	30.187 
17:30	58.9	58.9	58.9	44	37.0	0	0	---	0.00	30.190 
17:35	58.3	58.3	58.3	45	37.1	0	0	---	0.00	30.192 
17:40	57.6	57.6	57.6	46	37.0	0	0	---	0.00	30.191 
17:45	56.9	56.9	56.9	47	36.9	0	0	---	0.00	30.192 
17:50	56.2	56.2	56.2	50	37.8	0	0	---	0.00	30.190 
17:55	55.6	55.6	55.6	51	37.8	0	0	---	0.00	30.189 
18:00	54.8	54.8	54.8	52	37.5	0	0	---	0.00	30.193 
18:05	54.2	54.2	54.2	52	37.0	0	0	---	0.00	30.194 
18:10	53.6	53.6	53.6	54	37.4	0	0	---	0.00	30.196 
18:15	53.3	53.3	53.3	56	38.0	0	0	---	0.00	30.198 
18:20	52.9	52.9	52.9	58	38.5	0	0	---	0.00	30.198 
18:25	52.3	52.3	52.3	58	38.0	0	0	---	0.00	30.198 
18:30	52.0	52.0	52.0	59	38.1	0	0	---	0.00	30.199 
18:35	51.4	51.4	51.4	60	38.0	0	0	---	0.00	30.199 
18:40	51.0	51.0	51.0	61	38.0	0	0	---	0.00	30.201 
18:45	50.5	50.5	50.5	63	38.4	0	0	---	0.00	30.199 
18:50	50.1	50.1	50.1	64	38.4	0	0	---	0.00	30.200 
18:55	49.5	49.5	49.5	65	38.2	0	0	---	0.00	30.201 
19:00	49.1	49.1	49.1	66	38.2	0	0	---	0.00	30.202 
19:05	48.6	48.6	48.6	68	38.5	0	0	---	0.00	30.201 
19:10	48.2	48.2	48.2	69	38.5	0	0	---	0.00	30.202 
19:15	47.9	47.9	47.9	69	38.2	0	0	---	0.00	30.202 
19:20	47.4	47.4	47.4	70	38.1	0	0	---	0.00	30.202 
19:25	47.0	47.0	47.0	71	38.1	0	0	---	0.00	30.201 
19:30	46.7	46.7	46.7	72	38.2	0	1	248	0.00	30.200 
19:35	46.4	46.4	46.4	72	37.9	0	0	---	0.00	30.199 
19:40	46.1	46.1	46.1	73	37.9	0	0	---	0.00	30.200 
19:45	45.8	45.8	45.8	73	37.6	0	0	---	0.00	30.200 
19:50	45.5	45.5	45.5	74	37.7	0	0	---	0.00	30.198 
19:55	45.2	45.2	45.2	75	37.8	0	0	---	0.00	30.197 
20:00	44.9	44.9	44.9	76	37.8	0	0	---	0.00	30.194 
20:05	44.8	44.8	44.8	77	38.0	0	0	---	0.00	30.181 
20:10	44.5	44.5	44.5	77	37.7	0	0	---	0.00	30.181 
20:15	44.3	44.3	44.3	78	37.9	0	0	---	0.00	30.182 
20:20	44.2	44.2	44.2	78	37.8	0	0	---	0.00	30.181 
20:25	44.1	44.1	44.1	79	38.0	0	0	---	0.00	30.180 
20:30	43.9	43.9	43.9	79	37.8	0	0	---	0.00	30.180 
20:35	43.8	43.8	43.8	80	38.0	0	0	---	0.00	30.179 
20:40	43.6	43.6	43.6	80	37.8	0	0	---	0.00	30.177 
20:45	43.5	43.5	43.5	81	38.1	0	0	---	0.00	30.177 
20:50	43.3	43.3	43.3	81	37.9	0	0	---	0.00	30.176 
20:55	43.3	43.3	43.3	81	37.9	0	0	---	0.00	30.176 
21:00	43.2	43.2	43.2	82	38.1	0	0	---	0.00	30.176 
21:05	43.2	43.2	43.2	82	38.1	0	0	---	0.00	30.168 
21:10	43.2	43.2	43.2	83	38.4	0	0	---	0.00	30.168 
21:15	43.2	43.2	43.2	83	38.4	0	0	---	0.00	30.168 
21:20	43.2	43.2	43.2	83	38.4	0	0	---	0.00	30.167 
21:25	43.2	43.2	43.2	83	38.4	0	0	---	0.00	30.166 
21:30	43.3	43.3	43.3	83	38.5	0	0	---	0.00	30.162 
21:35	43.9	43.9	43.9	83	39.1	0	0	---	0.00	30.162 
21:40	44.5	44.5	44.5	81	39.0	0	0	---	0.00	30.162 
21:45	44.9	44.9	44.9	80	39.1	0	0	---	0.00	30.159 
21:50	45.2	45.2	45.2	79	39.1	0	0	---	0.00	30.159 
21:55	45.5	45.5	45.5	78	39.0	0	0	---	0.00	30.159 
22:00	45.8	45.8	45.8	77	39.0	0	0	---	0.00	30.158 
22:05	46.2	46.2	46.2	77	39.4	0	0	---	0.00	30.152 
22:10	46.7	46.7	46.7	75	39.2	0	1	248	0.00	30.151 
22:15	47.1	47.1	47.1	74	39.2	0	0	---	0.00	30.151 
22:20	47.6	47.6	47.6	73	39.4	0	0	---	0.00	30.151 
22:25	48.0	48.0	48.0	73	39.8	0	1	248	0.00	30.148 
22:30	48.2	48.2	48.2	72	39.6	0	1	248	0.00	30.146 
22:35	48.5	48.5	48.5	71	39.5	0	1	248	0.00	30.147 
22:40	48.8	48.8	48.8	70	39.5	0	2	248	0.00	30.145 
22:45	48.8	48.8	48.8	70	39.5	0	1	248	0.00	30.142 
22:50	49.1	49.1	49.1	69	39.4	0	1	248	0.00	30.141 
22:55	48.9	48.9	48.9	69	39.2	0	0	---	0.00	30.138 
23:00	48.9	48.9	48.9	69	39.2	0	0	---	0.00	30.136 
23:05	48.9	48.9	48.9	69	39.2	0	1	248	0.00	30.135 
23:10	48.9	48.9	48.9	70	39.6	0	2	248	0.00	30.136 
23:15	49.2	49.2	49.2	69	39.5	0	2	248	0.00	30.135 
23:20	49.6	49.6	49.6	68	39.5	0	2	248	0.00	30.134 
23:25	50.1	50.1	50.1	67	39.6	0	4	248	0.00	30.132 
23:30	50.4	50.4	50.4	66	39.5	0	2	248	0.00	30.132 
23:35	50.5	50.5	50.5	65	39.2	0	3	270	0.00	30.130 
23:40	50.5	50.5	50.5	65	39.2	0	4	112	0.00	30.131 
23:45	50.7	50.7	50.7	65	39.4	0	4	248	0.00	30.128 
23:50	50.4	50.4	50.4	65	39.1	0	1	248	0.00	30.127 
23:55	50.2	50.2	50.2	65	38.9	0	3	248	0.00	30.129 

CoCoRaHS
IN-AL-39
A2 Web Hosting
Creative Commons License
GoDaddy
Look for:

loaded 2017-10-18 21:54:43 • last modified 2010-11-18 10:43:29
Privacy PolicyDisclaimer
• wx.awcolley.com is powered by PmWiki v.2002016 •
• all content (unless otherwise noted) © 2017 A W Colley